Time;durP1;ratioP1;P1;durP2;ratioP2;P2;SDS_P1;SDS_P2;PMS_P1;PMS_P2;Temp;Humidity;BMP_temperature;BMP_pressure;BME280_temperature;BME280_humidity;BME280_pressure;Samples;Min_cycle;Max_cycle;Signal;HPM_P1;HPM_P2
2022/07/14 00:02:07;;;;;;;2.03;1.38;;;;;;;19.96;87.33;95103.47;4961482;28;20054;-88
2022/07/14 00:04:34;;;;;;;1.92;1.27;;;;;;;19.82;88.23;95099.03;4981972;28;20052;-88
2022/07/14 00:07:00;;;;;;;3.80;1.42;;;;;;;19.70;88.25;95106.81;4972761;28;20442;-88
2022/07/14 00:09:25;;;;;;;6.70;1.60;;;;;;;19.67;90.26;95100.22;4999950;28;20030;-87
2022/07/14 00:11:51;;;;;;;3.25;1.45;;;;;;;19.72;90.73;95102.72;4967611;28;20053;-88
2022/07/14 00:14:18;;;;;;;2.60;1.50;;;;;;;19.59;91.81;95101.75;4983529;28;20038;-88
2022/07/14 00:16:45;;;;;;;2.70;1.58;;;;;;;19.71;90.76;95101.16;4967720;28;20033;-88
2022/07/14 00:19:10;;;;;;;3.70;1.52;;;;;;;19.89;87.58;95096.69;5001353;28;20030;-88
2022/07/14 00:21:36;;;;;;;4.97;1.63;;;;;;;19.88;90.35;95097.03;4967412;28;20033;-88
2022/07/14 00:24:01;;;;;;;4.97;1.60;;;;;;;19.81;90.72;95097.47;4983246;28;20026;-87
2022/07/14 00:26:27;;;;;;;3.05;1.55;;;;;;;19.70;93.20;95098.84;4967796;28;20084;-88
2022/07/14 00:28:52;;;;;;;3.17;1.70;;;;;;;19.78;90.66;95095.41;4983248;28;20034;-87
2022/07/14 00:31:18;;;;;;;3.00;1.42;;;;;;;19.85;90.46;95082.47;4983368;28;20027;-88
2022/07/14 00:33:43;;;;;;;4.10;1.40;;;;;;;19.77;90.49;95091.97;4967340;28;20124;-87
2022/07/14 00:36:09;;;;;;;2.47;1.48;;;;;;;19.71;91.14;95097.75;4967456;28;20411;-88
2022/07/14 00:38:34;;;;;;;2.80;1.60;;;;;;;19.49;92.45;95091.38;4967446;28;20027;-88
2022/07/14 00:41:02;;;;;;;4.28;1.77;;;;;;;19.37;93.96;95091.97;4967171;28;20030;-88
2022/07/14 00:43:29;;;;;;;2.58;1.63;;;;;;;19.45;94.43;95093.09;4983166;28;20034;-88
2022/07/14 00:45:55;;;;;;;1.98;1.40;;;;;;;19.41;96.73;95094.81;4983293;28;20057;-88
2022/07/14 00:48:22;;;;;;;2.78;1.33;;;;;;;19.49;96.47;95091.38;4983378;28;20436;-88
2022/07/14 00:50:48;;;;;;;2.17;1.50;;;;;;;19.48;95.47;95087.16;4999268;28;20030;-88
2022/07/14 00:53:13;;;;;;;1.95;1.50;;;;;;;19.68;92.21;95093.03;4967109;28;20499;-88
2022/07/14 00:55:41;;;;;;;3.97;1.50;;;;;;;19.39;95.13;95083.72;4966797;28;20069;-88
2022/07/14 00:58:09;;;;;;;1.63;1.13;;;;;;;19.25;94.75;95084.56;4981937;28;20036;-88
2022/07/14 01:00:36;;;;;;;1.95;1.33;;;;;;;19.35;95.27;95091.50;4983126;28;20033;-88
2022/07/14 01:03:02;;;;;;;5.55;1.50;;;;;;;19.68;88.55;95077.09;4983051;28;20038;-87
2022/07/14 01:05:30;;;;;;;3.70;1.33;;;;;;;19.62;89.86;95079.88;4982868;28;20041;-88
2022/07/14 01:07:57;;;;;;;4.30;1.45;;;;;;;19.70;90.12;95072.25;4982840;28;20038;-88
2022/07/14 01:10:28;;;;;;;2.92;1.50;;;;;;;19.81;87.30;95073.53;4982245;28;20030;-88
2022/07/14 01:12:55;;;;;;;2.10;1.30;;;;;;;19.82;89.40;95075.09;4966254;28;20082;-88
2022/07/14 01:15:23;;;;;;;5.97;1.30;;;;;;;19.44;96.04;95078.25;4966773;28;20034;-88
2022/07/14 01:17:48;;;;;;;1.92;1.25;;;;;;;19.55;93.65;95074.22;4999085;28;20034;-88
2022/07/14 01:20:17;;;;;;;4.55;1.55;;;;;;;19.19;96.47;95073.28;4998533;28;20038;-88
2022/07/14 01:22:46;;;;;;;2.78;1.15;;;;;;;19.17;95.75;95077.34;4966600;28;20026;-88
2022/07/14 01:25:12;;;;;;;3.25;1.48;;;;;;;19.25;97.00;95073.16;4967038;28;20332;-89
2022/07/14 01:27:40;;;;;;;2.13;1.40;;;;;;;19.31;96.14;95075.38;4982477;28;20029;-88
2022/07/14 01:30:06;;;;;;;4.18;1.42;;;;;;;19.39;94.06;95070.41;4966391;28;20449;-88
2022/07/14 01:32:32;;;;;;;4.80;1.40;;;;;;;19.33;95.87;95073.19;4999986;28;20316;-88
2022/07/14 01:35:00;;;;;;;2.13;1.45;;;;;;;19.41;94.72;95068.25;4982406;28;20031;-88
2022/07/14 01:37:25;;;;;;;3.50;1.60;;;;;;;19.45;94.52;95066.53;4966665;28;20036;-87
2022/07/14 01:39:53;;;;;;;4.97;2.08;;;;;;;19.34;94.80;95069.44;4966279;28;20117;-87
2022/07/14 01:42:21;;;;;;;1.85;1.30;;;;;;;19.31;95.20;95072.72;4966234;28;20033;-88
2022/07/14 01:44:49;;;;;;;2.70;1.58;;;;;;;19.35;97.57;95073.66;4982272;28;20033;-88
2022/07/14 01:47:14;;;;;;;3.17;1.52;;;;;;;19.44;94.33;95072.94;4997615;28;20030;-88
2022/07/14 01:49:40;;;;;;;2.75;1.40;;;;;;;19.36;94.37;95072.56;4981832;28;20432;-88
2022/07/14 01:52:08;;;;;;;2.08;1.73;;;;;;;19.49;92.56;95076.25;4981828;28;20065;-88
2022/07/14 01:54:34;;;;;;;2.10;1.50;;;;;;;19.58;91.53;95078.13;4998042;28;20034;-87
2022/07/14 01:57:00;;;;;;;3.00;1.92;;;;;;;20.08;85.11;95066.41;4982198;28;20085;-87
2022/07/14 01:59:25;;;;;;;3.35;1.65;;;;;;;20.02;84.89;95065.00;4998076;28;20034;-86
2022/07/14 02:01:51;;;;;;;8.00;1.42;;;;;;;20.10;83.97;95058.13;4997522;28;20037;-87
2022/07/14 02:04:18;;;;;;;4.55;1.65;;;;;;;20.22;83.26;95055.63;4997504;28;20110;-87
2022/07/14 02:06:52;;;;;;;4.65;1.52;;;;;;;19.75;91.57;95061.47;4997698;28;20026;-88
2022/07/14 02:09:19;;;;;;;1.90;1.50;;;;;;;19.69;92.98;95057.41;4981775;28;20026;-88
2022/07/14 02:14:31;;;;;;;2.30;1.50;;;;;;;19.40;95.50;95064.78;4997463;28;20050;-88
2022/07/14 02:16:57;;;;;;;3.67;1.42;;;;;;;19.16;96.57;95057.19;4981393;28;20344;-88
2022/07/14 02:19:24;;;;;;;3.13;1.73;;;;;;;19.27;96.41;95052.38;4997699;28;20045;-88
2022/07/14 02:22:12;;;;;;;1.92;1.40;;;;;;;19.21;97.13;95054.38;4981448;28;20505;-88
2022/07/14 02:24:37;;;;;;;1.63;1.25;;;;;;;19.17;97.06;95046.25;4998689;28;20348;-88
2022/07/14 02:27:03;;;;;;;6.40;1.35;;;;;;;19.10;97.74;95050.44;4981498;28;20022;-88
2022/07/14 02:29:28;;;;;;;2.35;1.30;;;;;;;19.15;99.61;95055.59;4981511;28;20022;-88
2022/07/14 02:31:54;;;;;;;3.88;1.58;;;;;;;18.93;100.00;95047.34;4997173;28;20089;-88
2022/07/14 02:34:19;;;;;;;4.15;1.77;;;;;;;18.76;100.00;95044.59;4997471;28;20022;-88
2022/07/14 02:36:55;;;;;;;;;;;;;;;;;;;;;
2022/07/14 02:39:23;;;;;;;1.85;1.50;;;;;;;18.73;100.00;95050.50;4996807;28;20022;-88
2022/07/14 02:41:55;;;;;;;5.43;1.40;;;;;;;18.75;100.00;95043.78;4981525;28;20450;-88
2022/07/14 02:44:24;;;;;;;2.63;1.73;;;;;;;19.14;96.34;95046.06;4994554;28;20360;-87
2022/07/14 02:46:52;;;;;;;3.60;1.70;;;;;;;19.64;90.27;95045.03;4990381;28;20125;-88
2022/07/14 02:49:20;;;;;;;6.82;1.60;;;;;;;19.94;87.35;95039.97;4981195;28;20059;-89
2022/07/14 02:52:03;;;;;;;5.15;1.40;;;;;;;19.95;88.30;95043.41;4965052;28;20036;-89
2022/07/14 02:54:36;;;;;;;1.98;1.60;;;;;;;19.92;89.07;95042.91;4945441;28;20031;-88
2022/07/14 02:57:03;;;;;;;1.77;1.40;;;;;;;19.76;93.24;95039.09;4962593;28;20346;-89
2022/07/14 02:59:33;;;;;;;6.38;1.80;;;;;;;19.55;92.89;95036.22;4961639;28;20026;-89
2022/07/14 03:02:00;;;;;;;1.63;1.50;;;;;;;19.41;97.60;95034.47;4961723;28;20026;-89
2022/07/14 03:04:33;;;;;;;3.42;1.70;;;;;;;18.98;100.00;95040.31;4977172;28;20314;-87
2022/07/14 03:06:59;;;;;;;1.77;1.20;;;;;;;18.87;100.00;95040.59;4962152;28;20031;-88
2022/07/14 03:09:27;;;;;;;5.60;1.63;;;;;;;18.99;100.00;95042.72;4961545;28;20069;-88
2022/07/14 03:11:53;;;;;;;2.25;1.77;;;;;;;18.92;100.00;95044.97;4962046;28;20029;-88
2022/07/14 03:14:21;;;;;;;4.57;1.70;;;;;;;18.82;100.00;95039.94;4977270;28;20038;-87
2022/07/14 03:16:46;;;;;;;3.70;1.60;;;;;;;18.75;100.00;95041.13;4967052;28;20026;-88
2022/07/14 03:19:21;;;;;;;;;;;;;;;;;;;;;
2022/07/14 03:21:56;;;;;;;6.03;1.65;;;;;;;18.90;100.00;95041.84;4980837;28;20018;-89
2022/07/14 03:24:24;;;;;;;4.95;1.48;;;;;;;18.97;99.66;95044.88;4965276;28;20018;-88
2022/07/14 03:26:52;;;;;;;3.55;1.45;;;;;;;18.98;99.99;95040.31;4981007;28;20157;-89
2022/07/14 03:29:25;;;;;;;3.28;1.73;;;;;;;18.91;100.00;95040.75;4964012;28;20026;-89
2022/07/14 03:31:53;;;;;;;7.15;1.88;;;;;;;18.91;100.00;95038.09;4981179;28;20109;-88
2022/07/14 03:34:19;;;;;;;4.53;1.70;;;;;;;18.81;100.00;95043.69;4964341;28;20066;-88
2022/07/14 03:36:44;;;;;;;2.28;1.70;;;;;;;18.91;100.00;95040.75;4963918;28;20399;-88
2022/07/14 03:39:17;;;;;;;2.13;1.63;;;;;;;18.78;100.00;95039.75;4964406;28;20022;-88
2022/07/14 03:41:52;;;;;;;;;;;;;;;;;;;;;
2022/07/14 03:44:20;;;;;;;1.70;1.30;;;;;;;18.85;100.00;95040.09;4981007;28;20258;-88
2022/07/14 03:46:46;;;;;;;1.90;1.40;;;;;;;18.79;100.00;95041.31;4964613;28;20050;-88
2022/07/14 03:49:13;;;;;;;1.92;1.30;;;;;;;18.88;100.00;95041.38;4964067;28;20073;-88
2022/07/14 03:51:56;;;;;;;2.17;1.30;;;;;;;18.90;100.00;95036.53;4964717;28;20469;-88
2022/07/14 03:54:22;;;;;;;4.40;1.48;;;;;;;18.91;100.00;95040.75;4964118;28;20034;-89
2022/07/14 03:56:55;;;;;;;4.45;1.73;;;;;;;18.81;100.00;95035.72;4964243;28;20041;-88
2022/07/14 03:59:20;;;;;;;3.20;1.57;;;;;;;18.77;100.00;95040.84;4965180;28;20022;-88
2022/07/14 04:01:53;;;;;;;4.05;1.42;;;;;;;18.79;100.00;95039.47;4964021;28;20023;-88
2022/07/14 04:04:21;;;;;;;2.13;1.50;;;;;;;18.91;100.00;95044.22;4964433;28;20034;-88
2022/07/14 04:06:49;;;;;;;2.00;1.40;;;;;;;18.97;100.00;95036.13;4995939;28;20062;-88
2022/07/14 04:09:16;;;;;;;3.25;1.50;;;;;;;18.94;100.00;95034.88;4980001;28;20042;-87
2022/07/14 04:11:48;;;;;;;3.28;1.27;;;;;;;19.14;99.39;95044.19;4980166;28;20363;-88
2022/07/14 04:14:14;;;;;;;5.25;1.80;;;;;;;19.14;100.00;95038.88;4979737;28;20076;-88
2022/07/14 04:16:39;;;;;;;3.30;1.80;;;;;;;19.15;99.67;95040.47;4995896;28;20392;-88
2022/07/14 04:19:06;;;;;;;4.93;1.38;;;;;;;19.17;98.09;95040.16;4979908;28;20026;-88
2022/07/14 04:21:31;;;;;;;1.77;1.45;;;;;;;19.16;99.29;95046.56;4997605;28;20077;-88
2022/07/14 04:24:07;;;;;;;;;;;;;;;;;;;;;
2022/07/14 04:26:33;;;;;;;4.00;1.40;;;;;;;19.09;100.00;95036.38;4995604;28;20029;-88
2022/07/14 04:28:58;;;;;;;4.85;1.58;;;;;;;19.14;100.00;95028.25;4978723;28;20606;-88
2022/07/14 04:31:24;;;;;;;6.57;1.70;;;;;;;19.19;100.00;95033.44;4944250;28;20069;-85
2022/07/14 04:33:49;;;;;;;2.03;1.60;;;;;;;19.29;100.00;95024.44;4980859;28;20043;-85
2022/07/14 04:36:14;;;;;;;1.73;1.30;;;;;;;19.40;100.00;95016.19;4981038;28;20113;-85
2022/07/14 04:38:40;;;;;;;2.42;1.40;;;;;;;19.40;100.00;95018.84;4963569;28;20411;-84
2022/07/14 04:41:05;;;;;;;2.22;1.58;;;;;;;19.46;100.00;95022.91;4980990;28;20038;-85
2022/07/14 04:43:31;;;;;;;2.97;1.67;;;;;;;19.52;100.00;95024.38;4963393;28;20038;-85
2022/07/14 04:45:56;;;;;;;2.15;1.60;;;;;;;19.45;100.00;95019.50;4980973;28;20059;-84
2022/07/14 04:48:22;;;;;;;3.90;1.35;;;;;;;19.48;100.00;95020.72;4985382;28;20038;-85
2022/07/14 04:53:35;;;;;;;6.10;1.65;;;;;;;19.31;100.00;95027.56;4999818;28;20068;-85
2022/07/14 04:56:00;;;;;;;5.03;1.60;;;;;;;19.31;100.00;95022.25;4982766;28;20026;-85
2022/07/14 04:58:26;;;;;;;2.63;1.60;;;;;;;19.22;100.00;95021.41;4982581;28;20435;-85
2022/07/14 05:00:57;;;;;;;3.38;1.77;;;;;;;19.41;100.00;95018.53;4982800;28;20034;-85
2022/07/14 05:03:22;;;;;;;2.00;1.50;;;;;;;19.39;100.00;95022.59;4999709;28;20026;-85
2022/07/14 05:05:48;;;;;;;1.58;1.45;;;;;;;19.61;100.00;95022.50;4999789;28;20119;-85
2022/07/14 05:08:13;;;;;;;2.17;1.63;;;;;;;19.75;100.00;95026.91;4982565;28;20030;-86
2022/07/14 05:10:38;;;;;;;4.50;1.35;;;;;;;19.69;100.00;95028.94;4999921;28;20321;-87
2022/07/14 05:13:04;;;;;;;7.82;1.52;;;;;;;19.84;100.00;95029.59;4982860;28;20034;-87
2022/07/14 05:15:30;;;;;;;2.25;1.48;;;;;;;19.98;100.00;95024.94;5000037;28;20041;-86
2022/07/14 05:17:56;;;;;;;6.10;1.60;;;;;;;19.97;100.00;95026.03;4982327;28;20026;-87
2022/07/14 05:20:22;;;;;;;3.13;1.40;;;;;;;19.86;100.00;95030.84;5000097;28;20329;-86
2022/07/14 05:22:47;;;;;;;2.55;1.60;;;;;;;19.96;100.00;95035.09;4999373;28;20030;-86
2022/07/14 05:25:13;;;;;;;2.00;1.60;;;;;;;20.16;100.00;95033.72;4982181;28;20026;-86
2022/07/14 05:27:39;;;;;;;2.08;1.20;;;;;;;20.19;100.00;95038.41;4966175;28;20034;-86
2022/07/14 05:30:05;;;;;;;6.22;1.70;;;;;;;20.30;100.00;95033.59;4981896;28;20100;-86
2022/07/14 05:32:31;;;;;;;2.00;1.40;;;;;;;20.54;100.00;95036.88;4982356;28;20030;-86
2022/07/14 05:34:58;;;;;;;2.67;1.38;;;;;;;20.75;100.00;95035.09;4981699;28;20037;-86
2022/07/14 05:37:24;;;;;;;3.25;1.73;;;;;;;21.03;100.00;95037.44;4966058;28;20030;-86
2022/07/14 05:39:50;;;;;;;3.53;1.58;;;;;;;21.18;100.00;95032.69;4981760;28;20368;-86
2022/07/14 05:42:15;;;;;;;1.98;1.30;;;;;;;21.35;100.00;95036.38;4965862;28;20026;-86
2022/07/14 05:44:41;;;;;;;3.70;1.45;;;;;;;21.33;100.00;95031.38;4980934;28;20032;-86
2022/07/14 05:47:06;;;;;;;5.43;1.75;;;;;;;21.31;96.40;95030.94;4981831;28;20034;-86
2022/07/14 05:49:31;;;;;;;1.17;1.05;;;;;;;21.46;89.91;95029.59;4979176;28;20054;-87
2022/07/14 05:51:57;;;;;;;2.55;1.50;;;;;;;21.72;85.58;95032.16;4969715;28;20038;-87
2022/07/14 05:54:23;;;;;;;3.33;1.50;;;;;;;21.69;87.06;95032.03;4958584;28;20110;-86
2022/07/14 05:56:48;;;;;;;2.95;1.65;;;;;;;21.55;88.70;95033.00;4987272;28;20089;-86
2022/07/14 05:59:14;;;;;;;2.97;1.50;;;;;;;21.69;92.29;95030.13;4986675;28;20515;-86
2022/07/14 06:01:39;;;;;;;2.03;1.40;;;;;;;21.71;94.70;95027.94;4979228;28;20027;-86
2022/07/14 06:04:04;;;;;;;2.10;1.42;;;;;;;21.74;100.00;95034.50;4978170;28;20041;-86
2022/07/14 06:06:30;;;;;;;3.70;1.30;;;;;;;21.98;96.08;95030.47;4946139;28;20344;-86
2022/07/14 06:08:56;;;;;;;3.53;1.63;;;;;;;22.08;95.58;95027.38;4962186;28;20022;-86
2022/07/14 06:11:21;;;;;;;2.60;1.42;;;;;;;22.22;96.96;95029.81;4962158;28;20441;-86
2022/07/14 06:13:47;;;;;;;2.90;1.23;;;;;;;22.34;93.10;95036.31;4961882;28;20126;-86
2022/07/14 06:16:12;;;;;;;2.00;1.10;;;;;;;22.54;90.28;95027.53;4961791;28;20037;-85
2022/07/14 06:18:38;;;;;;;4.25;1.55;;;;;;;22.64;90.97;95029.00;4961929;28;20057;-85
2022/07/14 06:21:08;;;;;;;1.48;1.33;;;;;;;22.80;90.58;95031.06;4961653;28;20027;-85
2022/07/14 06:23:34;;;;;;;1.75;1.20;;;;;;;22.82;91.88;95028.88;4978855;28;20037;-85
2022/07/14 06:25:59;;;;;;;3.30;1.25;;;;;;;22.94;87.02;95025.44;4979128;28;20031;-85
2022/07/14 06:28:26;;;;;;;2.42;1.38;;;;;;;23.01;88.82;95023.78;4961529;28;20023;-85
2022/07/14 06:30:51;;;;;;;2.65;1.77;;;;;;;22.87;90.44;95020.63;4945635;28;20060;-85
2022/07/14 06:33:18;;;;;;;2.42;1.40;;;;;;;22.95;89.37;95019.75;4961569;28;20344;-85
2022/07/14 06:35:44;;;;;;;8.55;1.55;;;;;;;23.03;89.67;95020.78;4978532;28;20121;-84
2022/07/14 06:38:09;;;;;;;3.40;1.40;;;;;;;23.04;100.00;95024.22;4961387;28;20070;-85
2022/07/14 06:40:35;;;;;;;2.10;1.42;;;;;;;23.23;100.00;95013.03;4978782;28;20433;-85
2022/07/14 06:43:00;;;;;;;2.45;1.15;;;;;;;23.53;87.35;95020.84;4961465;28;20110;-85
2022/07/14 06:45:25;;;;;;;2.50;1.45;;;;;;;23.64;84.24;95021.19;4987471;28;20073;-86
2022/07/14 06:47:51;;;;;;;3.47;1.50;;;;;;;23.59;89.62;95016.84;4997950;28;20049;-85
2022/07/14 06:50:16;;;;;;;2.15;1.40;;;;;;;23.69;81.30;95016.41;4980351;28;20033;-85
2022/07/14 06:52:42;;;;;;;1.98;1.58;;;;;;;23.81;100.00;95028.97;4980271;28;20022;-85
2022/07/14 06:55:08;;;;;;;2.05;1.30;;;;;;;23.81;99.97;95022.84;4997091;28;20041;-87
2022/07/14 06:57:34;;;;;;;1.77;1.38;;;;;;;24.14;77.67;95022.72;4982119;28;20026;-86
2022/07/14 06:59:59;;;;;;;2.20;1.40;;;;;;;24.20;75.27;95014.44;4982763;28;20029;-86
2022/07/14 07:02:25;;;;;;;3.88;1.17;;;;;;;24.50;70.97;95016.78;4997545;28;20030;-86
2022/07/14 07:06:43;;;;;;;4.60;1.48;;;;;;;24.59;80.13;95022.78;4997725;28;20057;-85
2022/07/14 07:07:36;;;;;;;3.47;1.33;;;;;;;24.65;84.15;95020.66;4982966;28;20121;-85
2022/07/14 07:10:05;;;;;;;6.45;1.25;;;;;;;24.52;73.61;95017.22;4980522;28;20084;-84
2022/07/14 07:12:31;;;;;;;4.40;1.38;;;;;;;24.61;75.69;95022.47;4997530;28;20033;-85
2022/07/14 07:14:56;;;;;;;2.22;1.38;;;;;;;24.76;83.90;95029.78;4980144;28;20034;-85
2022/07/14 07:17:22;;;;;;;5.85;1.52;;;;;;;24.73;86.13;95021.63;4996391;28;20096;-86
2022/07/14 07:19:47;;;;;;;4.72;1.42;;;;;;;25.00;76.90;95017.38;4996735;28;20438;-86
2022/07/14 07:22:13;;;;;;;1.90;1.00;;;;;;;25.15;73.26;95020.41;4997278;28;20049;-86
2022/07/14 07:24:39;;;;;;;2.95;1.15;;;;;;;25.23;73.89;95019.47;4979816;28;20022;-86
2022/07/14 07:27:04;;;;;;;2.47;1.35;;;;;;;25.34;87.36;95017.03;4997220;28;20033;-86
2022/07/14 07:29:30;;;;;;;5.57;1.48;;;;;;;25.54;77.47;95020.59;4980119;28;20076;-86
2022/07/14 07:31:55;;;;;;;1.27;1.08;;;;;;;25.55;85.61;95019.47;4997130;28;20340;-86
2022/07/14 07:34:21;;;;;;;2.30;1.20;;;;;;;25.80;85.93;95017.34;4997391;28;20041;-85
2022/07/14 07:36:46;;;;;;;2.10;1.40;;;;;;;25.92;73.35;95010.31;4978150;28;20038;-85
2022/07/14 07:39:11;;;;;;;5.72;1.48;;;;;;;25.96;81.20;95013.84;4996501;28;20451;-85
2022/07/14 07:41:37;;;;;;;3.45;1.00;;;;;;;26.18;72.40;95011.66;4997277;28;20046;-86
2022/07/14 07:44:03;;;;;;;1.75;1.10;;;;;;;26.43;71.80;95014.09;4997186;28;20034;-85
2022/07/14 07:46:28;;;;;;;5.70;1.38;;;;;;;26.36;71.56;95012.03;4997081;28;20460;-86
2022/07/14 07:48:54;;;;;;;5.38;1.30;;;;;;;26.30;71.21;95011.53;4979846;28;20034;-86
2022/07/14 07:51:19;;;;;;;9.18;1.40;;;;;;;26.63;68.94;95009.47;4979315;28;20038;-86
2022/07/14 07:53:45;;;;;;;6.78;1.40;;;;;;;26.65;68.08;95009.91;4993711;28;20041;-86
2022/07/14 07:56:10;;;;;;;4.75;1.40;;;;;;;26.71;60.70;95016.53;4997518;28;20053;-85
2022/07/14 07:58:36;;;;;;;5.18;1.40;;;;;;;26.68;58.49;95003.81;4997111;28;20034;-84
2022/07/14 08:01:02;;;;;;;4.15;1.33;;;;;;;26.73;57.77;95008.13;4977526;28;20085;-85
2022/07/14 08:03:28;;;;;;;2.90;1.33;;;;;;;26.92;59.59;95007.34;4996011;28;20452;-86
2022/07/14 08:05:53;;;;;;;3.15;1.25;;;;;;;27.03;59.75;95005.59;4979820;28;20022;-85
2022/07/14 08:08:18;;;;;;;1.85;1.33;;;;;;;27.29;57.02;95008.72;4999664;28;20030;-87
2022/07/14 08:10:44;;;;;;;1.95;0.90;;;;;;;27.43;57.62;95014.31;4983578;28;20022;-86
2022/07/14 08:13:10;;;;;;;1.48;1.10;;;;;;;27.50;54.68;95010.97;5000681;28;20045;-86
2022/07/14 08:15:36;;;;;;;3.03;1.25;;;;;;;27.04;52.86;95009.88;4983016;28;20077;-86
2022/07/14 08:18:02;;;;;;;2.72;1.30;;;;;;;27.05;53.97;95008.72;4983407;28;20034;-84
2022/07/14 08:20:28;;;;;;;1.92;1.40;;;;;;;27.22;54.59;95012.06;4983134;28;20053;-86
2022/07/14 08:22:56;;;;;;;2.90;1.00;;;;;;;27.33;53.40;95010.34;5000247;28;20026;-87
2022/07/14 08:25:22;;;;;;;3.10;1.13;;;;;;;27.56;52.75;95009.53;4983522;28;20109;-86
2022/07/14 08:27:48;;;;;;;3.42;1.02;;;;;;;27.74;49.37;95012.50;4983286;28;20112;-86
2022/07/14 08:30:14;;;;;;;3.00;1.40;;;;;;;27.86;48.56;95011.50;4964703;28;20035;-86
2022/07/14 08:32:40;;;;;;;6.22;1.17;;;;;;;27.76;47.43;95004.03;5000069;28;20398;-85
2022/07/14 08:35:08;;;;;;;1.27;1.10;;;;;;;27.63;47.74;95006.19;5000407;28;20348;-86
2022/07/14 08:37:35;;;;;;;3.65;1.67;;;;;;;27.84;46.97;95004.94;4982766;28;20026;-86
2022/07/14 08:40:12;;;;;;;2.38;1.17;;;;;;;28.04;50.00;95005.59;4982694;28;20061;-86
2022/07/14 08:42:38;;;;;;;2.88;1.15;;;;;;;28.17;47.84;95006.19;4982502;28;20030;-84
2022/07/14 08:45:10;;;;;;;5.45;1.20;;;;;;;28.16;47.04;95004.59;4982980;28;20038;-85
2022/07/14 08:47:36;;;;;;;9.10;1.60;;;;;;;28.11;48.21;95004.91;5000340;28;20030;-84
2022/07/14 08:50:04;;;;;;;2.13;1.48;;;;;;;28.40;45.98;94997.97;4982521;28;20038;-85
2022/07/14 08:52:31;;;;;;;2.65;1.63;;;;;;;28.39;45.75;94998.34;4982608;28;20034;-84
2022/07/14 08:54:57;;;;;;;3.80;0.95;;;;;;;28.26;43.09;94998.56;4982159;28;20026;-85
2022/07/14 08:57:22;;;;;;;1.95;1.20;;;;;;;28.13;42.73;94999.94;4968924;28;20101;-85
2022/07/14 08:59:48;;;;;;;2.17;0.95;;;;;;;28.40;44.90;94991.81;4947126;28;20023;-84
2022/07/14 09:02:13;;;;;;;2.67;1.38;;;;;;;28.54;44.68;94996.59;4980538;28;20463;-86
2022/07/14 09:04:43;;;;;;;3.42;1.10;;;;;;;28.62;50.95;94996.31;4962787;28;20428;-84
2022/07/14 09:07:09;;;;;;;2.55;1.30;;;;;;;28.39;45.53;94988.34;4962523;28;20023;-85
2022/07/14 09:09:34;;;;;;;3.10;1.25;;;;;;;28.42;44.78;94990.31;4980443;28;20347;-85
2022/07/14 09:12:04;;;;;;;2.38;1.15;;;;;;;28.57;43.59;94987.78;4980399;28;20027;-84
2022/07/14 09:17:18;;;;;;;3.92;1.23;;;;;;;28.81;43.85;94989.19;4965464;28;20487;-85
2022/07/14 09:20:13;;;;;;;3.08;1.10;;;;;;;28.89;43.39;94993.53;4961778;28;20029;-85
2022/07/14 09:22:40;;;;;;;2.58;1.17;;;;;;;29.04;43.92;94989.03;4946419;28;20051;-86
2022/07/14 09:25:11;;;;;;;2.05;1.05;;;;;;;28.98;42.20;94992.44;4962928;28;20348;-85
2022/07/14 09:27:38;;;;;;;3.13;1.13;;;;;;;29.20;42.97;94994.19;4980202;28;20030;-85
2022/07/14 09:30:05;;;;;;;4.78;0.98;;;;;;;29.35;43.49;94986.97;4962651;28;20073;-85
2022/07/14 09:33:01;;;;;;;3.38;1.30;;;;;;;29.27;43.13;94987.31;4962717;28;20085;-85
2022/07/14 09:35:34;;;;;;;2.65;1.30;;;;;;;29.40;43.30;94990.47;4962356;28;20030;-85
2022/07/14 09:38:13;;;;;;;3.03;1.40;;;;;;;29.23;43.14;94981.09;4979733;28;20030;-85
2022/07/14 09:40:39;;;;;;;1.45;1.23;;;;;;;29.30;43.45;94975.75;4962499;28;20062;-85
2022/07/14 09:43:09;;;;;;;3.42;1.35;;;;;;;29.03;42.51;94979.38;4962268;28;20038;-85
2022/07/14 09:45:36;;;;;;;2.67;1.33;;;;;;;29.31;43.06;94983.47;4963211;28;20022;-86
2022/07/14 09:48:08;;;;;;;11.13;1.50;;;;;;;29.41;42.61;94982.00;4962188;28;20026;-85
2022/07/14 09:50:54;;;;;;;4.77;1.40;;;;;;;29.21;42.86;94978.78;4962427;28;20444;-84
2022/07/14 09:53:30;;;;;;;2.40;1.45;;;;;;;29.52;43.97;94975.94;4979659;28;20045;-84
2022/07/14 09:55:59;;;;;;;2.85;1.27;;;;;;;29.30;43.18;94965.72;4979626;28;20030;-86
2022/07/14 09:58:31;;;;;;;7.80;1.50;;;;;;;29.28;41.75;94975.38;4979640;28;20073;-84
2022/07/14 10:01:06;;;;;;;2.55;1.27;;;;;;;29.18;42.26;94968.72;4962152;28;20035;-86
2022/07/14 10:03:34;;;;;;;3.10;1.55;;;;;;;29.46;42.03;94972.81;4961784;28;20046;-85
2022/07/14 10:06:01;;;;;;;2.72;1.20;;;;;;;29.85;44.79;94971.53;4961905;28;20133;-86
2022/07/14 10:08:31;;;;;;;5.60;1.27;;;;;;;29.75;43.03;94962.97;4962235;28;20091;-85
2022/07/14 10:10:58;;;;;;;2.42;1.23;;;;;;;29.73;43.18;94959.88;4961709;28;20031;-85
2022/07/14 10:13:24;;;;;;;5.57;1.40;;;;;;;29.55;42.29;94967.84;4961877;28;20361;-86
2022/07/14 10:15:52;;;;;;;4.97;1.42;;;;;;;29.93;41.44;94966.94;4961971;28;20042;-86
2022/07/14 10:18:18;;;;;;;1.67;1.33;;;;;;;29.43;42.07;94966.25;4961704;28;20030;-86
2022/07/14 10:20:46;;;;;;;6.07;1.40;;;;;;;29.61;41.99;94957.47;4979365;28;20081;-85
2022/07/14 10:23:12;;;;;;;2.75;1.25;;;;;;;29.80;41.98;94950.25;4978913;28;20384;-85
2022/07/14 10:25:37;;;;;;;3.28;1.30;;;;;;;29.87;41.79;94953.00;4961918;28;20035;-85
2022/07/14 10:28:03;;;;;;;3.03;1.20;;;;;;;30.07;41.24;94950.81;4961417;28;20030;-84
2022/07/14 10:30:35;;;;;;;6.18;1.48;;;;;;;29.89;41.12;94946.06;4961337;28;20042;-85
2022/07/14 10:33:02;;;;;;;5.00;1.63;;;;;;;29.86;41.42;94948.75;4945582;28;20038;-85
2022/07/14 10:36:08;;;;;;;4.75;1.55;;;;;;;30.00;40.30;94946.13;4945768;28;20034;-85
2022/07/14 10:38:56;;;;;;;1.98;1.30;;;;;;;30.18;45.30;94948.16;4961373;28;20027;-84
2022/07/14 10:42:13;;;;;;;5.85;1.30;;;;;;;29.93;40.76;94937.22;4978242;28;20030;-86
2022/07/14 10:44:43;;;;;;;2.15;1.38;;;;;;;30.45;42.47;94943.19;4945177;28;20057;-84
2022/07/14 10:47:11;;;;;;;3.40;1.33;;;;;;;30.40;40.34;94942.78;4961592;28;20097;-85
2022/07/14 10:50:06;;;;;;;3.85;1.70;;;;;;;30.43;40.01;94939.34;4961400;28;20388;-86
2022/07/14 10:52:33;;;;;;;3.47;1.38;;;;;;;29.89;40.20;94940.66;4961356;28;20037;-86
2022/07/14 10:55:24;;;;;;;2.38;1.48;;;;;;;30.00;41.41;94935.31;4961067;28;20034;-87
2022/07/14 10:57:58;;;;;;;5.72;1.70;;;;;;;30.22;41.05;94940.81;4961360;28;20351;-84
2022/07/14 11:00:47;;;;;;;6.05;1.40;;;;;;;30.60;40.22;94929.72;4978246;28;20035;-86
2022/07/14 11:03:32;;;;;;;3.25;1.50;;;;;;;30.89;42.51;94935.19;4960878;28;20034;-85
2022/07/14 11:06:01;;;;;;;3.58;1.40;;;;;;;30.57;40.19;94928.56;4978238;28;20027;-85
2022/07/14 11:08:26;;;;;;;3.58;1.70;;;;;;;31.04;41.41;94933.28;4978059;28;20432;-84
2022/07/14 11:10:53;;;;;;;1.50;1.40;;;;;;;31.13;39.95;94932.88;4960850;28;20039;-85
2022/07/14 11:13:18;;;;;;;8.13;1.65;;;;;;;31.07;39.39;94929.03;4960667;28;20109;-85
2022/07/14 11:15:46;;;;;;;3.00;1.60;;;;;;;31.13;40.10;94933.66;4977891;28;20078;-86
2022/07/14 11:18:37;;;;;;;4.32;1.35;;;;;;;31.27;40.00;94927.47;4960697;28;20026;-85
2022/07/14 11:21:19;;;;;;;2.53;1.50;;;;;;;30.82;39.47;94925.13;4945478;28;20121;-86
2022/07/14 11:23:50;;;;;;;1.58;1.30;;;;;;;30.11;40.00;94918.38;4960631;28;20027;-85
2022/07/14 11:26:40;;;;;;;4.80;1.67;;;;;;;30.26;40.28;94914.56;4978121;28;20376;-85
2022/07/14 11:29:08;;;;;;;2.78;1.70;;;;;;;30.39;40.31;94920.41;4960884;28;20030;-85
2022/07/14 11:31:51;;;;;;;4.65;2.03;;;;;;;30.40;39.91;94913.06;4960455;28;20023;-84
2022/07/14 11:37:10;;;;;;;9.20;1.98;;;;;;;30.74;39.65;94910.06;4981107;28;20244;-86
2022/07/14 11:39:40;;;;;;;3.55;1.50;;;;;;;30.09;40.61;94905.28;4979696;28;20022;-85
2022/07/14 11:42:11;;;;;;;2.33;1.60;;;;;;;30.53;39.70;94911.56;4982596;28;20088;-86
2022/07/14 11:44:40;;;;;;;5.90;1.77;;;;;;;30.57;39.53;94906.16;4986528;28;20033;-86
2022/07/14 11:47:21;;;;;;;6.03;1.60;;;;;;;31.02;40.48;94908.53;5003610;28;20467;-85
2022/07/14 11:49:58;;;;;;;6.32;1.80;;;;;;;30.98;39.73;94896.94;4978869;28;20023;-85
2022/07/14 11:52:25;;;;;;;2.58;1.55;;;;;;;31.03;39.92;94889.19;4966806;28;20023;-84
2022/07/14 11:54:56;;;;;;;3.30;1.60;;;;;;;30.98;40.73;94894.22;4968693;28;20143;-85